sensor_id;sensor_type;location;lat;lon;timestamp;P1;durP1;ratioP1;P2;durP2;ratioP2
8704;SDS011;4389;41.932;25.904;2022-11-20T00:00:41;16.60;;;5.87;;
8704;SDS011;4389;41.932;25.904;2022-11-20T00:03:08;14.73;;;5.10;;
8704;SDS011;4389;41.932;25.904;2022-11-20T00:05:34;17.23;;;4.93;;
8704;SDS011;4389;41.932;25.904;2022-11-20T00:08:01;14.57;;;4.50;;
8704;SDS011;4389;41.932;25.904;2022-11-20T00:10:30;15.03;;;5.07;;
8704;SDS011;4389;41.932;25.904;2022-11-20T00:12:57;14.90;;;4.97;;
8704;SDS011;4389;41.932;25.904;2022-11-20T00:15:24;18.07;;;4.90;;
8704;SDS011;4389;41.932;25.904;2022-11-20T00:17:53;17.53;;;3.83;;
8704;SDS011;4389;41.932;25.904;2022-11-20T00:20:20;14.57;;;4.03;;
8704;SDS011;4389;41.932;25.904;2022-11-20T00:22:46;14.07;;;4.17;;
8704;SDS011;4389;41.932;25.904;2022-11-20T00:25:13;13.10;;;3.93;;
8704;SDS011;4389;41.932;25.904;2022-11-20T00:27:40;9.77;;;4.07;;
8704;SDS011;4389;41.932;25.904;2022-11-20T00:30:08;8.57;;;3.70;;
8704;SDS011;4389;41.932;25.904;2022-11-20T00:32:35;14.27;;;4.00;;
8704;SDS011;4389;41.932;25.904;2022-11-20T00:35:04;17.23;;;3.63;;
8704;SDS011;4389;41.932;25.904;2022-11-20T00:37:31;13.73;;;4.00;;
8704;SDS011;4389;41.932;25.904;2022-11-20T00:39:58;10.80;;;3.53;;
8704;SDS011;4389;41.932;25.904;2022-11-20T00:42:24;15.57;;;4.00;;
8704;SDS011;4389;41.932;25.904;2022-11-20T00:44:51;13.80;;;3.73;;
8704;SDS011;4389;41.932;25.904;2022-11-20T00:47:18;8.10;;;3.30;;
8704;SDS011;4389;41.932;25.904;2022-11-20T00:49:45;14.37;;;3.20;;
8704;SDS011;4389;41.932;25.904;2022-11-20T00:52:13;11.70;;;3.30;;
8704;SDS011;4389;41.932;25.904;2022-11-20T00:54:40;11.10;;;3.70;;
8704;SDS011;4389;41.932;25.904;2022-11-20T00:57:07;11.67;;;3.60;;
8704;SDS011;4389;41.932;25.904;2022-11-20T00:59:34;13.17;;;3.67;;
8704;SDS011;4389;41.932;25.904;2022-11-20T01:02:01;7.97;;;3.23;;
8704;SDS011;4389;41.932;25.904;2022-11-20T01:04:28;11.87;;;3.87;;
8704;SDS011;4389;41.932;25.904;2022-11-20T01:06:55;9.20;;;3.30;;
8704;SDS011;4389;41.932;25.904;2022-11-20T01:09:23;15.33;;;4.00;;
8704;SDS011;4389;41.932;25.904;2022-11-20T01:11:50;16.43;;;3.37;;
8704;SDS011;4389;41.932;25.904;2022-11-20T01:14:17;9.73;;;3.27;;
8704;SDS011;4389;41.932;25.904;2022-11-20T01:16:46;13.33;;;3.57;;
8704;SDS011;4389;41.932;25.904;2022-11-20T01:19:15;11.33;;;3.07;;
8704;SDS011;4389;41.932;25.904;2022-11-20T01:21:44;8.73;;;3.13;;
8704;SDS011;4389;41.932;25.904;2022-11-20T01:24:14;8.93;;;3.33;;
8704;SDS011;4389;41.932;25.904;2022-11-20T01:26:44;10.10;;;3.20;;
8704;SDS011;4389;41.932;25.904;2022-11-20T01:29:13;8.13;;;3.50;;
8704;SDS011;4389;41.932;25.904;2022-11-20T01:31:42;12.50;;;3.30;;
8704;SDS011;4389;41.932;25.904;2022-11-20T01:34:10;6.53;;;2.80;;
8704;SDS011;4389;41.932;25.904;2022-11-20T01:36:39;8.50;;;2.90;;
8704;SDS011;4389;41.932;25.904;2022-11-20T01:39:09;12.40;;;3.60;;
8704;SDS011;4389;41.932;25.904;2022-11-20T01:41:37;9.57;;;3.33;;
8704;SDS011;4389;41.932;25.904;2022-11-20T01:47:14;13.97;;;3.70;;
8704;SDS011;4389;41.932;25.904;2022-11-20T01:49:45;8.77;;;3.10;;
8704;SDS011;4389;41.932;25.904;2022-11-20T01:52:17;11.37;;;3.20;;
8704;SDS011;4389;41.932;25.904;2022-11-20T01:54:47;12.67;;;3.27;;
8704;SDS011;4389;41.932;25.904;2022-11-20T01:57:17;10.77;;;3.20;;
8704;SDS011;4389;41.932;25.904;2022-11-20T01:59:47;13.03;;;3.03;;
8704;SDS011;4389;41.932;25.904;2022-11-20T02:02:20;9.03;;;3.03;;
8704;SDS011;4389;41.932;25.904;2022-11-20T02:04:48;10.27;;;3.13;;
8704;SDS011;4389;41.932;25.904;2022-11-20T02:07:18;13.50;;;3.40;;
8704;SDS011;4389;41.932;25.904;2022-11-20T02:09:46;13.10;;;4.17;;
8704;SDS011;4389;41.932;25.904;2022-11-20T02:12:13;12.93;;;3.27;;
8704;SDS011;4389;41.932;25.904;2022-11-20T02:14:56;12.47;;;3.60;;
8704;SDS011;4389;41.932;25.904;2022-11-20T02:17:23;9.33;;;3.50;;
8704;SDS011;4389;41.932;25.904;2022-11-20T02:19:50;10.27;;;3.00;;
8704;SDS011;4389;41.932;25.904;2022-11-20T02:22:19;7.83;;;3.03;;
8704;SDS011;4389;41.932;25.904;2022-11-20T02:24:52;10.03;;;3.80;;
8704;SDS011;4389;41.932;25.904;2022-11-20T02:27:19;11.07;;;3.50;;
8704;SDS011;4389;41.932;25.904;2022-11-20T02:29:48;9.10;;;3.00;;
8704;SDS011;4389;41.932;25.904;2022-11-20T02:32:18;17.00;;;4.70;;
8704;SDS011;4389;41.932;25.904;2022-11-20T02:34:46;11.20;;;4.30;;
8704;SDS011;4389;41.932;25.904;2022-11-20T02:37:13;10.23;;;3.13;;
8704;SDS011;4389;41.932;25.904;2022-11-20T02:39:40;9.23;;;3.00;;
8704;SDS011;4389;41.932;25.904;2022-11-20T02:42:09;10.47;;;3.73;;
8704;SDS011;4389;41.932;25.904;2022-11-20T02:44:36;13.40;;;3.87;;
8704;SDS011;4389;41.932;25.904;2022-11-20T02:47:03;16.93;;;3.70;;
8704;SDS011;4389;41.932;25.904;2022-11-20T02:49:30;11.43;;;3.33;;
8704;SDS011;4389;41.932;25.904;2022-11-20T02:51:57;12.23;;;3.03;;
8704;SDS011;4389;41.932;25.904;2022-11-20T02:54:24;8.10;;;3.33;;
8704;SDS011;4389;41.932;25.904;2022-11-20T02:56:51;12.83;;;2.80;;
8704;SDS011;4389;41.932;25.904;2022-11-20T02:59:19;12.73;;;3.27;;
8704;SDS011;4389;41.932;25.904;2022-11-20T03:01:46;14.20;;;5.93;;
8704;SDS011;4389;41.932;25.904;2022-11-20T03:04:13;10.70;;;3.80;;
8704;SDS011;4389;41.932;25.904;2022-11-20T03:06:40;9.00;;;3.23;;
8704;SDS011;4389;41.932;25.904;2022-11-20T03:09:07;9.90;;;3.23;;
8704;SDS011;4389;41.932;25.904;2022-11-20T03:11:34;8.30;;;3.30;;
8704;SDS011;4389;41.932;25.904;2022-11-20T03:14:01;12.10;;;3.97;;
8704;SDS011;4389;41.932;25.904;2022-11-20T03:16:30;9.67;;;3.33;;
8704;SDS011;4389;41.932;25.904;2022-11-20T03:18:58;9.67;;;3.20;;
8704;SDS011;4389;41.932;25.904;2022-11-20T03:21:25;9.90;;;3.20;;
8704;SDS011;4389;41.932;25.904;2022-11-20T03:23:53;8.33;;;3.03;;
8704;SDS011;4389;41.932;25.904;2022-11-20T03:26:20;13.40;;;4.10;;
8704;SDS011;4389;41.932;25.904;2022-11-20T03:28:49;10.17;;;3.07;;
8704;SDS011;4389;41.932;25.904;2022-11-20T03:31:18;7.37;;;3.03;;
8704;SDS011;4389;41.932;25.904;2022-11-20T03:33:47;11.27;;;3.43;;
8704;SDS011;4389;41.932;25.904;2022-11-20T03:36:15;9.43;;;2.93;;
8704;SDS011;4389;41.932;25.904;2022-11-20T03:38:43;13.83;;;3.27;;
8704;SDS011;4389;41.932;25.904;2022-11-20T03:41:11;9.83;;;3.43;;
8704;SDS011;4389;41.932;25.904;2022-11-20T03:43:40;10.13;;;3.20;;
8704;SDS011;4389;41.932;25.904;2022-11-20T03:46:07;9.43;;;2.97;;
8704;SDS011;4389;41.932;25.904;2022-11-20T03:48:34;11.70;;;3.47;;
8704;SDS011;4389;41.932;25.904;2022-11-20T03:51:09;11.00;;;4.20;;
8704;SDS011;4389;41.932;25.904;2022-11-20T03:53:38;9.37;;;4.20;;
8704;SDS011;4389;41.932;25.904;2022-11-20T03:56:05;12.60;;;3.57;;
8704;SDS011;4389;41.932;25.904;2022-11-20T03:58:33;11.30;;;3.90;;
8704;SDS011;4389;41.932;25.904;2022-11-20T04:01:04;13.57;;;3.70;;
8704;SDS011;4389;41.932;25.904;2022-11-20T04:03:35;10.43;;;3.30;;
8704;SDS011;4389;41.932;25.904;2022-11-20T04:06:03;19.10;;;4.10;;
8704;SDS011;4389;41.932;25.904;2022-11-20T04:08:33;10.07;;;3.37;;
8704;SDS011;4389;41.932;25.904;2022-11-20T04:11:10;11.60;;;3.43;;
8704;SDS011;4389;41.932;25.904;2022-11-20T04:13:37;9.53;;;3.50;;
8704;SDS011;4389;41.932;25.904;2022-11-20T04:16:05;8.67;;;2.53;;
8704;SDS011;4389;41.932;25.904;2022-11-20T04:18:33;10.73;;;3.40;;
8704;SDS011;4389;41.932;25.904;2022-11-20T04:21:01;13.03;;;4.00;;
8704;SDS011;4389;41.932;25.904;2022-11-20T04:23:29;12.73;;;3.40;;
8704;SDS011;4389;41.932;25.904;2022-11-20T04:26:01;17.00;;;3.63;;
8704;SDS011;4389;41.932;25.904;2022-11-20T04:28:29;17.07;;;4.20;;
8704;SDS011;4389;41.932;25.904;2022-11-20T04:31:01;13.73;;;4.40;;
8704;SDS011;4389;41.932;25.904;2022-11-20T04:33:29;12.77;;;4.47;;
8704;SDS011;4389;41.932;25.904;2022-11-20T04:35:59;12.07;;;4.03;;
8704;SDS011;4389;41.932;25.904;2022-11-20T04:38:28;17.60;;;4.33;;
8704;SDS011;4389;41.932;25.904;2022-11-20T04:40:58;12.70;;;4.10;;
8704;SDS011;4389;41.932;25.904;2022-11-20T04:43:27;11.93;;;4.13;;
8704;SDS011;4389;41.932;25.904;2022-11-20T04:45:54;11.93;;;4.13;;
8704;SDS011;4389;41.932;25.904;2022-11-20T04:48:22;14.43;;;4.23;;
8704;SDS011;4389;41.932;25.904;2022-11-20T04:50:50;14.90;;;4.57;;
8704;SDS011;4389;41.932;25.904;2022-11-20T04:53:17;16.73;;;4.00;;
8704;SDS011;4389;41.932;25.904;2022-11-20T04:55:44;13.57;;;3.53;;
8704;SDS011;4389;41.932;25.904;2022-11-20T04:58:11;15.67;;;3.80;;
8704;SDS011;4389;41.932;25.904;2022-11-20T05:00:40;15.57;;;4.43;;
8704;SDS011;4389;41.932;25.904;2022-11-20T05:03:07;15.17;;;3.97;;
8704;SDS011;4389;41.932;25.904;2022-11-20T05:05:34;9.43;;;3.83;;
8704;SDS011;4389;41.932;25.904;2022-11-20T05:08:01;13.63;;;5.10;;
8704;SDS011;4389;41.932;25.904;2022-11-20T05:10:28;13.80;;;4.47;;
8704;SDS011;4389;41.932;25.904;2022-11-20T05:12:55;13.70;;;4.10;;
8704;SDS011;4389;41.932;25.904;2022-11-20T05:15:23;17.77;;;4.57;;
8704;SDS011;4389;41.932;25.904;2022-11-20T05:17:52;15.13;;;5.30;;
8704;SDS011;4389;41.932;25.904;2022-11-20T05:20:19;15.63;;;6.00;;
8704;SDS011;4389;41.932;25.904;2022-11-20T05:22:46;12.20;;;4.37;;
8704;SDS011;4389;41.932;25.904;2022-11-20T05:25:13;20.27;;;5.57;;
8704;SDS011;4389;41.932;25.904;2022-11-20T05:27:40;19.30;;;4.70;;
8704;SDS011;4389;41.932;25.904;2022-11-20T05:30:08;15.27;;;4.50;;
8704;SDS011;4389;41.932;25.904;2022-11-20T05:32:36;11.97;;;4.00;;
8704;SDS011;4389;41.932;25.904;2022-11-20T05:35:05;13.83;;;4.00;;
8704;SDS011;4389;41.932;25.904;2022-11-20T05:37:32;15.37;;;3.67;;
8704;SDS011;4389;41.932;25.904;2022-11-20T05:39:59;13.07;;;3.73;;
8704;SDS011;4389;41.932;25.904;2022-11-20T05:42:29;12.10;;;4.10;;
8704;SDS011;4389;41.932;25.904;2022-11-20T05:44:57;11.80;;;4.10;;
8704;SDS011;4389;41.932;25.904;2022-11-20T05:47:23;12.37;;;3.60;;
8704;SDS011;4389;41.932;25.904;2022-11-20T05:49:50;10.73;;;4.23;;
8704;SDS011;4389;41.932;25.904;2022-11-20T05:52:19;14.67;;;5.07;;
8704;SDS011;4389;41.932;25.904;2022-11-20T05:54:46;15.80;;;5.40;;
8704;SDS011;4389;41.932;25.904;2022-11-20T05:57:13;16.30;;;3.80;;
8704;SDS011;4389;41.932;25.904;2022-11-20T05:59:40;16.07;;;3.70;;
8704;SDS011;4389;41.932;25.904;2022-11-20T06:02:07;9.93;;;3.87;;
8704;SDS011;4389;41.932;25.904;2022-11-20T06:04:33;18.60;;;5.23;;
8704;SDS011;4389;41.932;25.904;2022-11-20T06:07:00;18.17;;;4.10;;
8704;SDS011;4389;41.932;25.904;2022-11-20T06:09:28;19.53;;;5.10;;
8704;SDS011;4389;41.932;25.904;2022-11-20T06:11:55;14.70;;;4.87;;
8704;SDS011;4389;41.932;25.904;2022-11-20T06:14:22;14.07;;;4.73;;
8704;SDS011;4389;41.932;25.904;2022-11-20T06:16:49;19.27;;;5.27;;
8704;SDS011;4389;41.932;25.904;2022-11-20T06:19:16;12.43;;;3.50;;
8704;SDS011;4389;41.932;25.904;2022-11-20T06:21:43;22.13;;;4.87;;
8704;SDS011;4389;41.932;25.904;2022-11-20T06:24:10;27.97;;;4.83;;
8704;SDS011;4389;41.932;25.904;2022-11-20T06:26:38;14.63;;;3.83;;
8704;SDS011;4389;41.932;25.904;2022-11-20T06:29:05;18.67;;;4.20;;
8704;SDS011;4389;41.932;25.904;2022-11-20T06:31:32;19.10;;;3.93;;
8704;SDS011;4389;41.932;25.904;2022-11-20T06:34:02;22.37;;;4.70;;
8704;SDS011;4389;41.932;25.904;2022-11-20T06:36:29;19.73;;;4.90;;
8704;SDS011;4389;41.932;25.904;2022-11-20T06:38:56;12.67;;;4.83;;
8704;SDS011;4389;41.932;25.904;2022-11-20T06:41:23;22.73;;;6.67;;
8704;SDS011;4389;41.932;25.904;2022-11-20T06:43:51;22.43;;;7.00;;
8704;SDS011;4389;41.932;25.904;2022-11-20T06:46:19;13.83;;;5.50;;
8704;SDS011;4389;41.932;25.904;2022-11-20T06:48:47;18.17;;;5.37;;
8704;SDS011;4389;41.932;25.904;2022-11-20T06:51:14;13.07;;;4.60;;
8704;SDS011;4389;41.932;25.904;2022-11-20T06:53:41;10.70;;;3.87;;
8704;SDS011;4389;41.932;25.904;2022-11-20T06:56:08;17.67;;;4.67;;
8704;SDS011;4389;41.932;25.904;2022-11-20T06:58:35;19.33;;;7.83;;
8704;SDS011;4389;41.932;25.904;2022-11-20T07:01:04;23.97;;;7.63;;
8704;SDS011;4389;41.932;25.904;2022-11-20T07:03:33;16.67;;;5.77;;
8704;SDS011;4389;41.932;25.904;2022-11-20T07:06:00;20.07;;;6.13;;
8704;SDS011;4389;41.932;25.904;2022-11-20T07:08:28;25.63;;;5.93;;
8704;SDS011;4389;41.932;25.904;2022-11-20T07:10:58;23.80;;;6.70;;
8704;SDS011;4389;41.932;25.904;2022-11-20T07:13:25;18.70;;;5.23;;
8704;SDS011;4389;41.932;25.904;2022-11-20T07:15:53;17.67;;;4.37;;
8704;SDS011;4389;41.932;25.904;2022-11-20T07:18:21;18.63;;;4.77;;
8704;SDS011;4389;41.932;25.904;2022-11-20T07:20:48;18.83;;;4.43;;
8704;SDS011;4389;41.932;25.904;2022-11-20T07:23:15;15.30;;;4.90;;
8704;SDS011;4389;41.932;25.904;2022-11-20T07:25:42;16.73;;;4.87;;
8704;SDS011;4389;41.932;25.904;2022-11-20T07:28:08;13.53;;;4.70;;
8704;SDS011;4389;41.932;25.904;2022-11-20T07:30:36;17.60;;;5.50;;
8704;SDS011;4389;41.932;25.904;2022-11-20T07:33:03;15.40;;;4.93;;
8704;SDS011;4389;41.932;25.904;2022-11-20T07:35:31;18.20;;;5.33;;
8704;SDS011;4389;41.932;25.904;2022-11-20T07:37:58;11.97;;;4.00;;
8704;SDS011;4389;41.932;25.904;2022-11-20T07:40:25;19.20;;;4.33;;
8704;SDS011;4389;41.932;25.904;2022-11-20T07:42:53;15.37;;;4.00;;
8704;SDS011;4389;41.932;25.904;2022-11-20T07:45:21;17.33;;;4.30;;
8704;SDS011;4389;41.932;25.904;2022-11-20T07:47:49;12.53;;;3.03;;
8704;SDS011;4389;41.932;25.904;2022-11-20T07:50:17;12.53;;;3.53;;
8704;SDS011;4389;41.932;25.904;2022-11-20T07:52:45;17.63;;;3.93;;
8704;SDS011;4389;41.932;25.904;2022-11-20T07:55:13;14.87;;;4.50;;
8704;SDS011;4389;41.932;25.904;2022-11-20T07:57:40;13.30;;;3.30;;
8704;SDS011;4389;41.932;25.904;2022-11-20T08:00:08;12.67;;;3.83;;
8704;SDS011;4389;41.932;25.904;2022-11-20T08:02:37;15.20;;;4.00;;
8704;SDS011;4389;41.932;25.904;2022-11-20T08:05:05;16.43;;;3.90;;
8704;SDS011;4389;41.932;25.904;2022-11-20T08:07:35;15.50;;;3.87;;
8704;SDS011;4389;41.932;25.904;2022-11-20T08:10:04;16.33;;;4.57;;
8704;SDS011;4389;41.932;25.904;2022-11-20T08:12:32;14.63;;;3.77;;
8704;SDS011;4389;41.932;25.904;2022-11-20T08:15:16;20.37;;;4.13;;
8704;SDS011;4389;41.932;25.904;2022-11-20T08:17:43;13.23;;;3.60;;
8704;SDS011;4389;41.932;25.904;2022-11-20T08:20:10;12.53;;;4.17;;
8704;SDS011;4389;41.932;25.904;2022-11-20T08:22:37;20.47;;;4.50;;
8704;SDS011;4389;41.932;25.904;2022-11-20T08:25:05;13.13;;;4.57;;
8704;SDS011;4389;41.932;25.904;2022-11-20T08:27:33;18.17;;;4.73;;
8704;SDS011;4389;41.932;25.904;2022-11-20T08:30:00;18.10;;;4.77;;
8704;SDS011;4389;41.932;25.904;2022-11-20T08:32:26;27.40;;;5.13;;
8704;SDS011;4389;41.932;25.904;2022-11-20T08:34:53;21.03;;;4.57;;
8704;SDS011;4389;41.932;25.904;2022-11-20T08:37:20;21.77;;;4.37;;
8704;SDS011;4389;41.932;25.904;2022-11-20T08:39:47;12.70;;;3.73;;
8704;SDS011;4389;41.932;25.904;2022-11-20T08:42:15;18.77;;;5.10;;
8704;SDS011;4389;41.932;25.904;2022-11-20T08:44:42;18.53;;;5.20;;
8704;SDS011;4389;41.932;25.904;2022-11-20T08:47:09;19.30;;;5.47;;
8704;SDS011;4389;41.932;25.904;2022-11-20T08:49:36;25.10;;;5.83;;
8704;SDS011;4389;41.932;25.904;2022-11-20T08:52:03;18.13;;;5.00;;
8704;SDS011;4389;41.932;25.904;2022-11-20T08:54:31;16.43;;;4.33;;
8704;SDS011;4389;41.932;25.904;2022-11-20T08:56:58;22.60;;;5.70;;
8704;SDS011;4389;41.932;25.904;2022-11-20T08:59:26;15.57;;;4.53;;
8704;SDS011;4389;41.932;25.904;2022-11-20T09:01:53;15.13;;;4.03;;
8704;SDS011;4389;41.932;25.904;2022-11-20T09:04:20;23.38;;;5.50;;
8704;SDS011;4389;41.932;25.904;2022-11-20T09:06:47;14.17;;;4.37;;
8704;SDS011;4389;41.932;25.904;2022-11-20T09:09:16;24.63;;;4.80;;
8704;SDS011;4389;41.932;25.904;2022-11-20T09:11:43;26.00;;;5.17;;
8704;SDS011;4389;41.932;25.904;2022-11-20T09:14:09;16.47;;;4.57;;
8704;SDS011;4389;41.932;25.904;2022-11-20T09:16:38;21.00;;;4.93;;
8704;SDS011;4389;41.932;25.904;2022-11-20T09:19:04;31.57;;;6.27;;
8704;SDS011;4389;41.932;25.904;2022-11-20T09:21:31;19.60;;;5.53;;
8704;SDS011;4389;41.932;25.904;2022-11-20T09:23:58;28.20;;;5.93;;
8704;SDS011;4389;41.932;25.904;2022-11-20T09:26:25;28.73;;;5.67;;
8704;SDS011;4389;41.932;25.904;2022-11-20T09:28:51;24.77;;;5.60;;
8704;SDS011;4389;41.932;25.904;2022-11-20T09:31:19;24.33;;;5.00;;
8704;SDS011;4389;41.932;25.904;2022-11-20T09:33:50;25.50;;;5.63;;
8704;SDS011;4389;41.932;25.904;2022-11-20T09:36:17;32.37;;;6.97;;
8704;SDS011;4389;41.932;25.904;2022-11-20T09:38:44;22.57;;;6.10;;
8704;SDS011;4389;41.932;25.904;2022-11-20T09:41:17;26.67;;;9.03;;
8704;SDS011;4389;41.932;25.904;2022-11-20T09:43:59;21.40;;;5.53;;
8704;SDS011;4389;41.932;25.904;2022-11-20T09:46:36;23.67;;;6.60;;
8704;SDS011;4389;41.932;25.904;2022-11-20T09:49:19;28.57;;;5.80;;
8704;SDS011;4389;41.932;25.904;2022-11-20T09:51:57;28.00;;;5.87;;
8704;SDS011;4389;41.932;25.904;2022-11-20T09:54:26;24.67;;;6.77;;
8704;SDS011;4389;41.932;25.904;2022-11-20T09:56:58;27.47;;;6.57;;
8704;SDS011;4389;41.932;25.904;2022-11-20T09:59:33;30.13;;;6.23;;
8704;SDS011;4389;41.932;25.904;2022-11-20T10:02:11;21.93;;;5.37;;
8704;SDS011;4389;41.932;25.904;2022-11-20T10:04:45;37.60;;;7.53;;
8704;SDS011;4389;41.932;25.904;2022-11-20T10:07:19;32.73;;;7.43;;
8704;SDS011;4389;41.932;25.904;2022-11-20T10:09:50;25.80;;;6.87;;
8704;SDS011;4389;41.932;25.904;2022-11-20T10:12:20;22.43;;;6.50;;
8704;SDS011;4389;41.932;25.904;2022-11-20T10:14:58;28.93;;;6.13;;
8704;SDS011;4389;41.932;25.904;2022-11-20T10:17:58;28.57;;;6.37;;
8704;SDS011;4389;41.932;25.904;2022-11-20T10:20:39;24.37;;;5.47;;
8704;SDS011;4389;41.932;25.904;2022-11-20T10:23:17;22.80;;;5.23;;
8704;SDS011;4389;41.932;25.904;2022-11-20T10:25:55;17.90;;;4.63;;
8704;SDS011;4389;41.932;25.904;2022-11-20T10:28:30;31.87;;;6.33;;
8704;SDS011;4389;41.932;25.904;2022-11-20T10:31:08;31.13;;;5.93;;
8704;SDS011;4389;41.932;25.904;2022-11-20T10:33:39;21.47;;;6.27;;
8704;SDS011;4389;41.932;25.904;2022-11-20T10:36:13;31.57;;;5.50;;
8704;SDS011;4389;41.932;25.904;2022-11-20T10:38:44;23.47;;;5.33;;
8704;SDS011;4389;41.932;25.904;2022-11-20T10:41:17;28.70;;;5.03;;
8704;SDS011;4389;41.932;25.904;2022-11-20T10:43:53;26.70;;;6.03;;
8704;SDS011;4389;41.932;25.904;2022-11-20T10:46:33;22.07;;;5.30;;
8704;SDS011;4389;41.932;25.904;2022-11-20T10:49:10;18.83;;;5.37;;
8704;SDS011;4389;41.932;25.904;2022-11-20T10:51:43;27.60;;;5.43;;
8704;SDS011;4389;41.932;25.904;2022-11-20T10:54:29;30.13;;;6.03;;
8704;SDS011;4389;41.932;25.904;2022-11-20T10:57:03;22.53;;;5.33;;
8704;SDS011;4389;41.932;25.904;2022-11-20T10:59:49;35.63;;;7.80;;
8704;SDS011;4389;41.932;25.904;2022-11-20T11:02:31;29.27;;;7.17;;
8704;SDS011;4389;41.932;25.904;2022-11-20T11:05:02;27.20;;;5.37;;
8704;SDS011;4389;41.932;25.904;2022-11-20T11:07:38;31.97;;;5.77;;
8704;SDS011;4389;41.932;25.904;2022-11-20T11:10:12;36.20;;;6.17;;
8704;SDS011;4389;41.932;25.904;2022-11-20T11:12:42;39.73;;;7.10;;
8704;SDS011;4389;41.932;25.904;2022-11-20T11:15:12;28.53;;;5.97;;
8704;SDS011;4389;41.932;25.904;2022-11-20T11:17:46;28.77;;;6.27;;
8704;SDS011;4389;41.932;25.904;2022-11-20T11:20:17;30.67;;;6.33;;
8704;SDS011;4389;41.932;25.904;2022-11-20T11:22:47;28.20;;;5.57;;
8704;SDS011;4389;41.932;25.904;2022-11-20T11:25:19;29.00;;;5.83;;
8704;SDS011;4389;41.932;25.904;2022-11-20T11:27:48;31.97;;;6.43;;
8704;SDS011;4389;41.932;25.904;2022-11-20T11:30:17;37.57;;;6.47;;
8704;SDS011;4389;41.932;25.904;2022-11-20T11:32:45;28.87;;;6.47;;
8704;SDS011;4389;41.932;25.904;2022-11-20T11:35:19;33.00;;;7.37;;
8704;SDS011;4389;41.932;25.904;2022-11-20T11:37:49;31.00;;;6.57;;
8704;SDS011;4389;41.932;25.904;2022-11-20T11:40:19;39.50;;;7.50;;
8704;SDS011;4389;41.932;25.904;2022-11-20T11:42:50;29.37;;;6.23;;
8704;SDS011;4389;41.932;25.904;2022-11-20T11:45:20;28.53;;;6.10;;
8704;SDS011;4389;41.932;25.904;2022-11-20T11:47:47;33.57;;;6.23;;
8704;SDS011;4389;41.932;25.904;2022-11-20T11:50:18;34.47;;;7.23;;
8704;SDS011;4389;41.932;25.904;2022-11-20T11:52:58;33.60;;;7.03;;
8704;SDS011;4389;41.932;25.904;2022-11-20T11:55:34;37.93;;;7.40;;
8704;SDS011;4389;41.932;25.904;2022-11-20T11:58:14;36.67;;;6.97;;
8704;SDS011;4389;41.932;25.904;2022-11-20T12:00:47;39.27;;;7.23;;
8704;SDS011;4389;41.932;25.904;2022-11-20T12:03:21;30.83;;;6.17;;
8704;SDS011;4389;41.932;25.904;2022-11-20T12:05:55;30.27;;;6.20;;
8704;SDS011;4389;41.932;25.904;2022-11-20T12:08:26;34.10;;;6.70;;
8704;SDS011;4389;41.932;25.904;2022-11-20T12:10:59;34.40;;;6.50;;
8704;SDS011;4389;41.932;25.904;2022-11-20T12:13:35;32.47;;;5.97;;
8704;SDS011;4389;41.932;25.904;2022-11-20T12:16:09;28.27;;;6.00;;
8704;SDS011;4389;41.932;25.904;2022-11-20T12:18:39;31.17;;;6.10;;
8704;SDS011;4389;41.932;25.904;2022-11-20T12:21:17;32.77;;;6.83;;
8704;SDS011;4389;41.932;25.904;2022-11-20T12:23:53;29.60;;;6.40;;
8704;SDS011;4389;41.932;25.904;2022-11-20T12:26:45;29.17;;;6.80;;
8704;SDS011;4389;41.932;25.904;2022-11-20T12:29:23;30.57;;;7.17;;
8704;SDS011;4389;41.932;25.904;2022-11-20T12:32:20;38.07;;;5.70;;
8704;SDS011;4389;41.932;25.904;2022-11-20T12:35:07;35.73;;;6.83;;
8704;SDS011;4389;41.932;25.904;2022-11-20T12:37:52;36.30;;;6.30;;
8704;SDS011;4389;41.932;25.904;2022-11-20T12:40:31;34.07;;;7.07;;
8704;SDS011;4389;41.932;25.904;2022-11-20T12:43:06;34.23;;;6.37;;
8704;SDS011;4389;41.932;25.904;2022-11-20T12:46:05;33.17;;;7.40;;
8704;SDS011;4389;41.932;25.904;2022-11-20T12:48:51;31.23;;;6.73;;
8704;SDS011;4389;41.932;25.904;2022-11-20T12:57:42;40.43;;;7.37;;
8704;SDS011;4389;41.932;25.904;2022-11-20T13:00:15;40.73;;;7.90;;
8704;SDS011;4389;41.932;25.904;2022-11-20T13:02:52;51.97;;;7.70;;
8704;SDS011;4389;41.932;25.904;2022-11-20T13:05:31;36.57;;;7.93;;
8704;SDS011;4389;41.932;25.904;2022-11-20T13:08:03;36.00;;;7.40;;
8704;SDS011;4389;41.932;25.904;2022-11-20T13:10:39;39.90;;;7.13;;
8704;SDS011;4389;41.932;25.904;2022-11-20T13:13:14;34.23;;;7.13;;
8704;SDS011;4389;41.932;25.904;2022-11-20T13:15:50;31.10;;;7.23;;
8704;SDS011;4389;41.932;25.904;2022-11-20T13:18:22;42.30;;;8.30;;
8704;SDS011;4389;41.932;25.904;2022-11-20T13:20:49;43.83;;;6.40;;
8704;SDS011;4389;41.932;25.904;2022-11-20T13:23:23;46.97;;;7.47;;
8704;SDS011;4389;41.932;25.904;2022-11-20T13:26:04;33.03;;;7.00;;
8704;SDS011;4389;41.932;25.904;2022-11-20T13:28:34;34.07;;;7.10;;
8704;SDS011;4389;41.932;25.904;2022-11-20T13:31:02;50.97;;;8.50;;
8704;SDS011;4389;41.932;25.904;2022-11-20T13:33:29;53.87;;;7.50;;
8704;SDS011;4389;41.932;25.904;2022-11-20T13:35:59;43.30;;;8.07;;
8704;SDS011;4389;41.932;25.904;2022-11-20T13:38:27;33.50;;;7.27;;
8704;SDS011;4389;41.932;25.904;2022-11-20T13:40:55;45.93;;;7.83;;
8704;SDS011;4389;41.932;25.904;2022-11-20T13:43:28;39.33;;;9.50;;
8704;SDS011;4389;41.932;25.904;2022-11-20T13:46:03;40.70;;;6.83;;
8704;SDS011;4389;41.932;25.904;2022-11-20T13:48:32;45.57;;;8.33;;
8704;SDS011;4389;41.932;25.904;2022-11-20T13:51:05;36.13;;;7.33;;
8704;SDS011;4389;41.932;25.904;2022-11-20T13:53:45;34.93;;;7.80;;
8704;SDS011;4389;41.932;25.904;2022-11-20T13:56:25;42.73;;;7.60;;
8704;SDS011;4389;41.932;25.904;2022-11-20T13:59:02;50.53;;;8.17;;
8704;SDS011;4389;41.932;25.904;2022-11-20T14:01:45;33.67;;;7.17;;
8704;SDS011;4389;41.932;25.904;2022-11-20T14:04:14;46.90;;;8.83;;
8704;SDS011;4389;41.932;25.904;2022-11-20T14:06:44;48.43;;;8.57;;
8704;SDS011;4389;41.932;25.904;2022-11-20T14:09:24;48.43;;;8.57;;
8704;SDS011;4389;41.932;25.904;2022-11-20T14:11:52;39.10;;;8.20;;
8704;SDS011;4389;41.932;25.904;2022-11-20T14:14:19;39.90;;;8.33;;
8704;SDS011;4389;41.932;25.904;2022-11-20T14:16:48;38.47;;;8.80;;
8704;SDS011;4389;41.932;25.904;2022-11-20T14:19:26;45.40;;;8.73;;
8704;SDS011;4389;41.932;25.904;2022-11-20T14:22:16;42.53;;;8.00;;
8704;SDS011;4389;41.932;25.904;2022-11-20T14:24:45;40.17;;;8.40;;
8704;SDS011;4389;41.932;25.904;2022-11-20T14:27:13;35.73;;;8.33;;
8704;SDS011;4389;41.932;25.904;2022-11-20T14:29:41;44.73;;;8.80;;
8704;SDS011;4389;41.932;25.904;2022-11-20T14:32:12;42.00;;;8.50;;
8704;SDS011;4389;41.932;25.904;2022-11-20T14:34:41;42.33;;;9.00;;
8704;SDS011;4389;41.932;25.904;2022-11-20T14:37:11;36.63;;;7.97;;
8704;SDS011;4389;41.932;25.904;2022-11-20T14:39:40;45.43;;;8.87;;
8704;SDS011;4389;41.932;25.904;2022-11-20T14:42:15;47.03;;;8.30;;
8704;SDS011;4389;41.932;25.904;2022-11-20T14:44:43;53.87;;;9.07;;
8704;SDS011;4389;41.932;25.904;2022-11-20T14:47:13;42.27;;;8.33;;
8704;SDS011;4389;41.932;25.904;2022-11-20T14:49:45;51.23;;;9.17;;
8704;SDS011;4389;41.932;25.904;2022-11-20T14:52:15;38.07;;;9.63;;
8704;SDS011;4389;41.932;25.904;2022-11-20T14:54:44;39.53;;;8.90;;
8704;SDS011;4389;41.932;25.904;2022-11-20T15:00:04;46.73;;;8.97;;
8704;SDS011;4389;41.932;25.904;2022-11-20T15:02:47;39.43;;;8.30;;
8704;SDS011;4389;41.932;25.904;2022-11-20T15:05:16;41.23;;;8.77;;
8704;SDS011;4389;41.932;25.904;2022-11-20T15:07:45;36.13;;;8.10;;
8704;SDS011;4389;41.932;25.904;2022-11-20T15:10:18;37.10;;;8.13;;
8704;SDS011;4389;41.932;25.904;2022-11-20T15:12:48;40.23;;;8.90;;
8704;SDS011;4389;41.932;25.904;2022-11-20T15:15:18;51.03;;;9.23;;
8704;SDS011;4389;41.932;25.904;2022-11-20T15:17:50;39.87;;;8.50;;